AirNav   Pilot Hours Calculator
 
 434 users online  

FA81 Tavernaero Park Airport
Tavernier, Florida, USA

GOING TO TAVERNIER?


FAA INFORMATION EFFECTIVE 02 DECEMBER 2021

Location

FAA Identifier: FA81
Lat/Long: 25-00-31.4670N 080-31-59.2200W
25-00.524450N 080-31.987000W
25.0087408,-80.5331167
(estimated)
Elevation: 10 ft. / 3 m (estimated)
Variation: 02W (1985)
From city: 1 mile W of TAVERNIER, FL
Time zone: UTC -5 (UTC -4 during Daylight Saving Time)
Zip code: 33070

Airport Operations

Airport use: Private use. Permission required prior to landing
Activation date: 09/1963
Control tower: no
ARTCC: MIAMI CENTER
FSS: MIAMI FLIGHT SERVICE STATION
Attendance: CONTINUOUS
Wind indicator: yes
Segmented circle: no

Airport Communications

  • MULTICOM 122.900.

Nearby radio navigation aids

NDB name  Hdg/Dist  Freq  Var  ID
MARATHON064/35.426004WMTH -- - ....

Airport Services

Airframe service: NONE
Powerplant service: NONE

Runway Information

Runway 8/26

Dimensions: 2175 x 95 ft. / 663 x 29 m
Surface: turf
RUNWAY 8  RUNWAY 26
Traffic pattern: leftleft
Obstructions: road203 ft. tower, marked and lighted, 2500 ft. from runway

Airport Ownership and Management from official FAA records

Ownership: Privately-owned
Owner: TAVERNAERO ARPT PARK INC
213 N AIRPORT RD
TAVERNIER, FL 33070
Manager: TOM BOSELY
105 N AIRPORT RD
TAVERNIER, FL 33070
Phone (305) 393-2710
OTR CTC ROLF FUCHS 954-873-9599.

Airport Operational Statistics

Aircraft based on the field: 19
Single engine airplanes: 16
Multi engine airplanes: 3
    

Additional Remarks

FOR CD CTC MIAMI ARTCC AT 305-716-1731.

Instrument Procedures

There are no published instrument procedures at FA81.

Some nearby airports with instrument procedures:

07FA - Ocean Reef Club Airport (24 nm NE)
X51 - Miami Homestead General Aviation Airport (29 nm N)
KHST - Homestead Air Reserve Base (30 nm N)
KMTH - The Florida Keys Marathon International Airport (33 nm SW)
KTMB - Miami Executive Airport (39 nm N)
 
Loc | Ops | Rwys | IFR | FBO | Links
Com | Nav | Svcs | Stats | Notes


 
Area around FA81 (Tavernaero Park Airport)
 
Road maps at: MapQuest Bing Google
 
Aerial photo
WARNING: Photo may not be current or correct
Aerial photo of FA81 (Tavernaero Park Airport)
Photo taken 19-Jul-2010
looking North.

Do you have a better or more recent aerial photo of Tavernaero Park Airport that you would like to share? If so, please send us your photo.

 
Sectional chart

 
Airport distance calculator
Flying to Tavernaero Park Airport? Find the distance to fly.

From to FA81

Sunrise and sunset
Times for 07-Dec-2021
 Local
(UTC-5)
 Zulu
(UTC)
Morning civil twilight06:3111:31
Sunrise06:5511:55
Sunset17:3222:32
Evening civil twilight17:5722:57

Current date and time
Zulu (UTC)  07-Dec-2021 11:02:54
Local (UTC-5)  07-Dec-2021 06:02:54
 
METAR
KHST 
29nm N 
071056Z AUTO 35003KT 8SM CLR 19/18 A3005 RMK AO2 SLP179 T01920180
KMTH 
33nm SW 
071053Z AUTO 02007KT 10SM CLR 22/20 A3005 RMK AO2 SLP174 T02220200
KTMB 
39nm N 
071053Z 36006KT 10SM FG CLR 20/18 A3007 RMK AO2 SLP180 T02000178
KMIA 
48nm N 
071053Z 35003KT 10SM CLR 21/18 A3007 RMK AO2 SLP183 T02060183 $
TAF
KHST 
29nm N 
070400Z 0704/0810 VRB05KT 2400 BR FEW005 SCT015 QNH3005INS TEMPO 0704/0710 33003KT 0800 FG SCT000 BKN005 OVC015 BECMG 0712/0713 34003KT 6000 BR SCT005 SCT015 QNH3007INS BECMG 0714/0715 06006KT 9999 NSW FEW015 QNH3003INS TX27/0719Z TN20/0711Z
KMTH 
33nm SW 
070807Z 0708/0806 02006KT P6SM SCT010 SCT080 FM071300 03006KT P6SM FEW025
NOTAMs
Click for the latest NOTAMs
NOTAMs are issued by the DoD/FAA and will open in a separate window not controlled by AirNav.

 

 
 

Would you like to see your business listed on this page?

 If your business provides an interesting product or service to pilots, flight crews, aircraft, or users of the Tavernaero Park Airport, you should consider listing it here.  To start the listing process, click on the button below
 
Add a business
 

Other Pages about Tavernaero Park Airport

Update a link
 
Copyright © AirNav, LLC. All rights reserved. Privacy Policy  Contact